Weather at Ponciano Arriaga International Airport

Public forecast

Using degrees Celsius for public forecast. Weather courtesy of forecast.io.

Current aviation weather report (METAR) for Ponciano Arriaga International Airport

2022/11/30 16:46 (retrieved 1 hour ago)

MMSP 301646Z 09008KT 12SM SCT230 22/00 A3030 RMK 8/001

Aviation forecast (TAF) for Ponciano Arriaga International Airport

2022/11/30 12:28 (retrieved 5 hours ago)

TAF MMSP 301022Z 3012/0118 00000KT P6SM SKC TX23/3020Z TN08/3012Z FM301800 11012KT P6SM SCT030 BKN250 FM010600 05005KT 6SM HZ SCT020 BKN250 PROB40 0110/0114 3SM -RA BR BKN012 FM011700 12010KT P6SM BKN020 BKN080